sensor_id;sensor_type;location;lat;lon;timestamp;pressure;altitude;pressure_sealevel;temperature;humidity
65151;BME280;51918;51.856;0.150;2023-05-09T00:01:52;100459.28;;;13.94;100.00
65151;BME280;51918;51.856;0.150;2023-05-09T00:06:52;100456.75;;;14.01;100.00
65151;BME280;51918;51.856;0.150;2023-05-09T00:11:53;100436.84;;;14.02;100.00
65151;BME280;51918;51.856;0.150;2023-05-09T00:16:55;100443.59;;;13.96;100.00
65151;BME280;51918;51.856;0.150;2023-05-09T00:21:56;100430.31;;;14.06;100.00
65151;BME280;51918;51.856;0.150;2023-05-09T00:26:56;100427.59;;;14.14;100.00
65151;BME280;51918;51.856;0.150;2023-05-09T00:31:58;100415.25;;;14.09;100.00
65151;BME280;51918;51.856;0.150;2023-05-09T00:36:59;100417.00;;;14.09;100.00
65151;BME280;51918;51.856;0.150;2023-05-09T00:42:00;100400.13;;;14.13;100.00
65151;BME280;51918;51.856;0.150;2023-05-09T00:47:02;100397.78;;;14.18;100.00
65151;BME280;51918;51.856;0.150;2023-05-09T00:52:04;100389.47;;;14.23;100.00
65151;BME280;51918;51.856;0.150;2023-05-09T00:57:06;100376.22;;;14.11;100.00
65151;BME280;51918;51.856;0.150;2023-05-09T01:02:09;100367.41;;;14.27;100.00
65151;BME280;51918;51.856;0.150;2023-05-09T01:07:13;100360.47;;;14.34;100.00
65151;BME280;51918;51.856;0.150;2023-05-09T01:12:23;100362.22;;;14.27;100.00
65151;BME280;51918;51.856;0.150;2023-05-09T01:17:32;100353.06;;;14.24;100.00
65151;BME280;51918;51.856;0.150;2023-05-09T01:22:36;100338.19;;;14.33;100.00
65151;BME280;51918;51.856;0.150;2023-05-09T01:27:44;100331.22;;;14.33;100.00
65151;BME280;51918;51.856;0.150;2023-05-09T01:32:50;100329.84;;;14.37;100.00
65151;BME280;51918;51.856;0.150;2023-05-09T01:37:53;100319.88;;;14.41;100.00
65151;BME280;51918;51.856;0.150;2023-05-09T01:42:56;100315.94;;;14.45;100.00
65151;BME280;51918;51.856;0.150;2023-05-09T01:47:59;100312.72;;;14.43;100.00
65151;BME280;51918;51.856;0.150;2023-05-09T01:53:01;100306.41;;;14.46;100.00
65151;BME280;51918;51.856;0.150;2023-05-09T01:58:05;100301.84;;;14.54;100.00
65151;BME280;51918;51.856;0.150;2023-05-09T02:03:08;100297.88;;;14.58;100.00
65151;BME280;51918;51.856;0.150;2023-05-09T02:08:09;100302.69;;;14.68;100.00
65151;BME280;51918;51.856;0.150;2023-05-09T02:13:10;100295.00;;;14.82;100.00
65151;BME280;51918;51.856;0.150;2023-05-09T02:18:12;100281.22;;;14.74;100.00
65151;BME280;51918;51.856;0.150;2023-05-09T02:23:13;100272.84;;;14.72;100.00
65151;BME280;51918;51.856;0.150;2023-05-09T02:28:14;100272.63;;;14.67;100.00
65151;BME280;51918;51.856;0.150;2023-05-09T02:33:18;100267.81;;;14.64;100.00
65151;BME280;51918;51.856;0.150;2023-05-09T02:38:19;100257.44;;;14.57;100.00
65151;BME280;51918;51.856;0.150;2023-05-09T02:43:19;100257.47;;;14.64;100.00
65151;BME280;51918;51.856;0.150;2023-05-09T02:48:21;100252.09;;;14.59;100.00
65151;BME280;51918;51.856;0.150;2023-05-09T02:53:22;100249.88;;;14.63;100.00
65151;BME280;51918;51.856;0.150;2023-05-09T02:58:22;100253.13;;;14.71;100.00
65151;BME280;51918;51.856;0.150;2023-05-09T03:03:25;100258.69;;;14.68;100.00
65151;BME280;51918;51.856;0.150;2023-05-09T03:08:25;100259.69;;;14.67;100.00
65151;BME280;51918;51.856;0.150;2023-05-09T03:13:26;100262.03;;;14.62;100.00
65151;BME280;51918;51.856;0.150;2023-05-09T03:18:28;100269.03;;;14.68;100.00
65151;BME280;51918;51.856;0.150;2023-05-09T03:23:28;100258.69;;;14.75;100.00
65151;BME280;51918;51.856;0.150;2023-05-09T03:28:29;100246.75;;;14.74;100.00
65151;BME280;51918;51.856;0.150;2023-05-09T03:33:31;100248.75;;;14.78;100.00
65151;BME280;51918;51.856;0.150;2023-05-09T03:38:32;100262.06;;;14.69;100.00
65151;BME280;51918;51.856;0.150;2023-05-09T03:43:32;100262.06;;;14.69;100.00
65151;BME280;51918;51.856;0.150;2023-05-09T03:48:34;100260.47;;;14.61;100.00
65151;BME280;51918;51.856;0.150;2023-05-09T03:53:35;100257.66;;;14.63;100.00
65151;BME280;51918;51.856;0.150;2023-05-09T03:58:35;100257.25;;;14.59;100.00
65151;BME280;51918;51.856;0.150;2023-05-09T04:03:37;100255.28;;;14.61;100.00
65151;BME280;51918;51.856;0.150;2023-05-09T04:08:38;100255.66;;;14.58;100.00
65151;BME280;51918;51.856;0.150;2023-05-09T04:13:39;100256.47;;;14.58;100.00
65151;BME280;51918;51.856;0.150;2023-05-09T04:18:41;100250.47;;;14.58;100.00
65151;BME280;51918;51.856;0.150;2023-05-09T04:23:41;100245.13;;;14.59;100.00
65151;BME280;51918;51.856;0.150;2023-05-09T04:28:42;100254.44;;;14.54;100.00
65151;BME280;51918;51.856;0.150;2023-05-09T04:33:44;100239.28;;;14.44;100.00
65151;BME280;51918;51.856;0.150;2023-05-09T04:38:44;100234.72;;;14.46;100.00
65151;BME280;51918;51.856;0.150;2023-05-09T04:43:45;100230.94;;;14.49;100.00
65151;BME280;51918;51.856;0.150;2023-05-09T04:48:47;100231.53;;;14.51;100.00
65151;BME280;51918;51.856;0.150;2023-05-09T04:53:48;100234.53;;;14.48;100.00
65151;BME280;51918;51.856;0.150;2023-05-09T04:58:48;100235.09;;;14.43;100.00
65151;BME280;51918;51.856;0.150;2023-05-09T05:03:51;100242.66;;;14.45;100.00
65151;BME280;51918;51.856;0.150;2023-05-09T05:08:51;100237.28;;;14.40;100.00
65151;BME280;51918;51.856;0.150;2023-05-09T05:13:52;100233.09;;;14.38;100.00
65151;BME280;51918;51.856;0.150;2023-05-09T05:18:54;100226.34;;;14.44;100.00
65151;BME280;51918;51.856;0.150;2023-05-09T05:23:55;100229.13;;;14.43;100.00
65151;BME280;51918;51.856;0.150;2023-05-09T05:28:56;100212.81;;;14.49;100.00
65151;BME280;51918;51.856;0.150;2023-05-09T05:33:58;100218.44;;;14.59;100.00
65151;BME280;51918;51.856;0.150;2023-05-09T05:38:59;100205.31;;;14.67;100.00
65151;BME280;51918;51.856;0.150;2023-05-09T05:43:59;100201.13;;;14.73;100.00
65151;BME280;51918;51.856;0.150;2023-05-09T05:49:01;100193.03;;;14.83;100.00
65151;BME280;51918;51.856;0.150;2023-05-09T05:54:02;100187.84;;;14.89;100.00
65151;BME280;51918;51.856;0.150;2023-05-09T05:59:03;100188.63;;;14.90;100.00
65151;BME280;51918;51.856;0.150;2023-05-09T06:04:05;100188.44;;;14.91;100.00
65151;BME280;51918;51.856;0.150;2023-05-09T06:09:05;100186.66;;;14.92;100.00
65151;BME280;51918;51.856;0.150;2023-05-09T06:14:06;100189.25;;;15.05;100.00
65151;BME280;51918;51.856;0.150;2023-05-09T06:19:09;100188.25;;;15.19;100.00
65151;BME280;51918;51.856;0.150;2023-05-09T06:24:12;100193.03;;;15.36;100.00
65151;BME280;51918;51.856;0.150;2023-05-09T06:29:13;100189.41;;;15.50;100.00
65151;BME280;51918;51.856;0.150;2023-05-09T06:34:15;100193.97;;;15.61;100.00
65151;BME280;51918;51.856;0.150;2023-05-09T06:39:15;100189.75;;;15.74;100.00
65151;BME280;51918;51.856;0.150;2023-05-09T06:44:16;100201.13;;;15.86;100.00
65151;BME280;51918;51.856;0.150;2023-05-09T06:49:18;100206.03;;;16.08;100.00
65151;BME280;51918;51.856;0.150;2023-05-09T06:54:19;100201.00;;;16.19;100.00
65151;BME280;51918;51.856;0.150;2023-05-09T06:59:19;100211.94;;;16.35;100.00
65151;BME280;51918;51.856;0.150;2023-05-09T07:04:21;100202.41;;;16.54;100.00
65151;BME280;51918;51.856;0.150;2023-05-09T07:09:22;100201.00;;;16.58;99.27
65151;BME280;51918;51.856;0.150;2023-05-09T07:14:23;100204.72;;;16.69;99.12
65151;BME280;51918;51.856;0.150;2023-05-09T07:19:25;100203.69;;;16.83;97.61
65151;BME280;51918;51.856;0.150;2023-05-09T07:24:26;100200.00;;;16.97;96.44
65151;BME280;51918;51.856;0.150;2023-05-09T07:29:26;100191.06;;;17.12;95.13
65151;BME280;51918;51.856;0.150;2023-05-09T07:34:31;100199.69;;;17.31;95.55
65151;BME280;51918;51.856;0.150;2023-05-09T07:39:32;100201.91;;;17.52;94.23
65151;BME280;51918;51.856;0.150;2023-05-09T07:44:33;100204.31;;;17.72;92.40
65151;BME280;51918;51.856;0.150;2023-05-09T07:49:35;100196.53;;;17.91;91.02
65151;BME280;51918;51.856;0.150;2023-05-09T07:54:36;100200.81;;;18.15;90.92
65151;BME280;51918;51.856;0.150;2023-05-09T07:59:36;100192.44;;;18.13;88.96
65151;BME280;51918;51.856;0.150;2023-05-09T08:04:38;100193.66;;;18.59;88.64
65151;BME280;51918;51.856;0.150;2023-05-09T08:09:39;100186.59;;;19.14;86.60
65151;BME280;51918;51.856;0.150;2023-05-09T08:14:39;100187.19;;;19.51;82.36
65151;BME280;51918;51.856;0.150;2023-05-09T08:19:42;100188.75;;;19.76;78.86
65151;BME280;51918;51.856;0.150;2023-05-09T08:24:42;100182.72;;;20.16;78.69
65151;BME280;51918;51.856;0.150;2023-05-09T08:29:43;100180.81;;;20.40;73.80
65151;BME280;51918;51.856;0.150;2023-05-09T08:34:45;100185.59;;;20.94;71.52
65151;BME280;51918;51.856;0.150;2023-05-09T08:39:45;100194.09;;;21.01;68.78
65151;BME280;51918;51.856;0.150;2023-05-09T08:44:46;100179.28;;;21.06;69.11
65151;BME280;51918;51.856;0.150;2023-05-09T08:49:49;100181.44;;;21.31;68.03
65151;BME280;51918;51.856;0.150;2023-05-09T08:54:50;100184.47;;;21.62;66.42
65151;BME280;51918;51.856;0.150;2023-05-09T08:59:51;100191.09;;;21.70;64.80
65151;BME280;51918;51.856;0.150;2023-05-09T09:04:53;100184.16;;;21.59;64.35
65151;BME280;51918;51.856;0.150;2023-05-09T09:09:54;100178.25;;;22.12;64.07
65151;BME280;51918;51.856;0.150;2023-05-09T09:15:02;100179.84;;;22.68;62.50
65151;BME280;51918;51.856;0.150;2023-05-09T09:20:07;100176.94;;;23.02;58.59
65151;BME280;51918;51.856;0.150;2023-05-09T09:25:09;100169.06;;;23.02;57.25
65151;BME280;51918;51.856;0.150;2023-05-09T09:30:10;100177.88;;;22.90;56.74
65151;BME280;51918;51.856;0.150;2023-05-09T09:35:13;100178.88;;;22.84;56.12
65151;BME280;51918;51.856;0.150;2023-05-09T09:40:14;100179.81;;;22.41;55.27
65151;BME280;51918;51.856;0.150;2023-05-09T09:45:16;100184.97;;;22.03;55.71
65151;BME280;51918;51.856;0.150;2023-05-09T09:50:19;100178.50;;;21.67;57.13
65151;BME280;51918;51.856;0.150;2023-05-09T09:55:21;100177.72;;;21.66;59.63
65151;BME280;51918;51.856;0.150;2023-05-09T10:00:24;100171.09;;;21.81;59.65
65151;BME280;51918;51.856;0.150;2023-05-09T10:05:28;100151.31;;;22.17;60.11
65151;BME280;51918;51.856;0.150;2023-05-09T10:10:30;100153.59;;;22.68;57.62
65151;BME280;51918;51.856;0.150;2023-05-09T10:15:31;100145.69;;;23.48;56.14
65151;BME280;51918;51.856;0.150;2023-05-09T10:20:34;100142.63;;;23.71;53.46
65151;BME280;51918;51.856;0.150;2023-05-09T10:25:38;100145.53;;;23.75;53.20
65151;BME280;51918;51.856;0.150;2023-05-09T10:30:44;100135.59;;;23.92;50.94
65151;BME280;51918;51.856;0.150;2023-05-09T10:35:51;100126.69;;;24.55;51.27
65151;BME280;51918;51.856;0.150;2023-05-09T10:40:53;100123.94;;;25.32;49.73
65151;BME280;51918;51.856;0.150;2023-05-09T10:45:55;100106.47;;;25.96;48.75
65151;BME280;51918;51.856;0.150;2023-05-09T10:50:57;100106.53;;;26.25;46.25
65151;BME280;51918;51.856;0.150;2023-05-09T10:55:59;100103.06;;;26.30;44.02
65151;BME280;51918;51.856;0.150;2023-05-09T11:01:01;100101.13;;;26.06;43.50
65151;BME280;51918;51.856;0.150;2023-05-09T11:06:04;100100.53;;;25.10;43.91
65151;BME280;51918;51.856;0.150;2023-05-09T11:11:05;100103.03;;;24.45;45.50
65151;BME280;51918;51.856;0.150;2023-05-09T11:16:10;100098.56;;;24.04;46.53
65151;BME280;51918;51.856;0.150;2023-05-09T11:21:13;100099.44;;;23.42;47.60
65151;BME280;51918;51.856;0.150;2023-05-09T11:26:14;100102.16;;;23.04;50.00
65151;BME280;51918;51.856;0.150;2023-05-09T11:31:16;100101.47;;;22.77;49.11
65151;BME280;51918;51.856;0.150;2023-05-09T11:36:20;100092.81;;;22.76;50.63
65151;BME280;51918;51.856;0.150;2023-05-09T11:41:21;100084.44;;;23.27;51.77
65151;BME280;51918;51.856;0.150;2023-05-09T11:46:22;100075.91;;;23.62;46.81
65151;BME280;51918;51.856;0.150;2023-05-09T11:51:24;100080.16;;;24.45;49.86
65151;BME280;51918;51.856;0.150;2023-05-09T11:56:25;100086.81;;;25.23;47.74
65151;BME280;51918;51.856;0.150;2023-05-09T12:01:26;100073.38;;;25.74;44.09
65151;BME280;51918;51.856;0.150;2023-05-09T12:06:29;100070.13;;;26.22;44.76
65151;BME280;51918;51.856;0.150;2023-05-09T12:11:30;100073.28;;;26.83;43.30
65151;BME280;51918;51.856;0.150;2023-05-09T12:16:30;100077.38;;;26.94;40.45
65151;BME280;51918;51.856;0.150;2023-05-09T12:21:35;100065.53;;;26.91;41.40
65151;BME280;51918;51.856;0.150;2023-05-09T12:26:35;100072.53;;;26.48;41.12
65151;BME280;51918;51.856;0.150;2023-05-09T12:31:36;100070.16;;;26.51;41.13
65151;BME280;51918;51.856;0.150;2023-05-09T12:36:38;100058.41;;;26.68;42.29
65151;BME280;51918;51.856;0.150;2023-05-09T12:41:43;100052.47;;;27.24;44.77
65151;BME280;51918;51.856;0.150;2023-05-09T12:46:52;100050.91;;;27.80;41.53
65151;BME280;51918;51.856;0.150;2023-05-09T12:51:55;100041.41;;;28.26;40.80
65151;BME280;51918;51.856;0.150;2023-05-09T12:56:57;100040.75;;;28.75;38.74
65151;BME280;51918;51.856;0.150;2023-05-09T13:01:58;100046.56;;;28.91;37.85
65151;BME280;51918;51.856;0.150;2023-05-09T13:07:07;100033.81;;;28.93;37.07
65151;BME280;51918;51.856;0.150;2023-05-09T13:12:08;100024.56;;;28.63;38.04
65151;BME280;51918;51.856;0.150;2023-05-09T13:17:09;100018.91;;;28.42;37.59
65151;BME280;51918;51.856;0.150;2023-05-09T13:22:11;100017.31;;;28.27;37.41
65151;BME280;51918;51.856;0.150;2023-05-09T13:27:11;100027.84;;;27.99;37.96
65151;BME280;51918;51.856;0.150;2023-05-09T13:32:12;100023.25;;;27.72;38.54
65151;BME280;51918;51.856;0.150;2023-05-09T13:37:14;100015.91;;;27.50;38.89
65151;BME280;51918;51.856;0.150;2023-05-09T13:42:15;100021.69;;;27.14;38.38
65151;BME280;51918;51.856;0.150;2023-05-09T13:47:17;100017.09;;;27.01;38.49
65151;BME280;51918;51.856;0.150;2023-05-09T13:52:18;100013.28;;;26.88;39.49
65151;BME280;51918;51.856;0.150;2023-05-09T13:57:19;100009.91;;;26.64;39.34
65151;BME280;51918;51.856;0.150;2023-05-09T14:02:20;100007.50;;;26.38;39.87
65151;BME280;51918;51.856;0.150;2023-05-09T14:07:22;99992.53;;;26.04;39.82
65151;BME280;51918;51.856;0.150;2023-05-09T14:12:22;99985.53;;;25.89;41.59
65151;BME280;51918;51.856;0.150;2023-05-09T14:17:23;99978.50;;;26.38;39.57
65151;BME280;51918;51.856;0.150;2023-05-09T14:22:25;99975.81;;;26.86;39.65
65151;BME280;51918;51.856;0.150;2023-05-09T14:27:26;99979.16;;;27.16;39.52
65151;BME280;51918;51.856;0.150;2023-05-09T14:32:26;99963.81;;;27.18;37.64
65151;BME280;51918;51.856;0.150;2023-05-09T14:37:28;99959.81;;;27.20;38.30
65151;BME280;51918;51.856;0.150;2023-05-09T14:42:29;99945.97;;;27.10;37.63
65151;BME280;51918;51.856;0.150;2023-05-09T14:47:29;99949.00;;;26.79;38.44
65151;BME280;51918;51.856;0.150;2023-05-09T14:52:32;99934.81;;;26.75;39.21
65151;BME280;51918;51.856;0.150;2023-05-09T14:57:32;99939.28;;;26.55;38.06
65151;BME280;51918;51.856;0.150;2023-05-09T15:02:33;99935.13;;;26.49;40.14
65151;BME280;51918;51.856;0.150;2023-05-09T15:07:35;99932.91;;;26.56;39.04
65151;BME280;51918;51.856;0.150;2023-05-09T15:12:35;99923.38;;;26.61;37.80
65151;BME280;51918;51.856;0.150;2023-05-09T15:17:36;99926.78;;;26.37;39.12
65151;BME280;51918;51.856;0.150;2023-05-09T15:22:38;99916.25;;;26.13;40.20
65151;BME280;51918;51.856;0.150;2023-05-09T15:27:39;99910.81;;;25.46;41.08
65151;BME280;51918;51.856;0.150;2023-05-09T15:32:39;99915.34;;;24.95;44.49
65151;BME280;51918;51.856;0.150;2023-05-09T15:37:41;99922.47;;;24.25;45.26
65151;BME280;51918;51.856;0.150;2023-05-09T15:42:42;99913.59;;;23.80;47.17
65151;BME280;51918;51.856;0.150;2023-05-09T15:47:43;99906.25;;;23.56;48.79
65151;BME280;51918;51.856;0.150;2023-05-09T15:52:46;99921.47;;;23.39;49.90
65151;BME280;51918;51.856;0.150;2023-05-09T15:57:47;99918.25;;;23.16;50.29
65151;BME280;51918;51.856;0.150;2023-05-09T16:02:48;99908.72;;;22.79;50.36
65151;BME280;51918;51.856;0.150;2023-05-09T16:07:50;99915.88;;;22.36;50.88
65151;BME280;51918;51.856;0.150;2023-05-09T16:12:50;99938.69;;;21.93;52.26
65151;BME280;51918;51.856;0.150;2023-05-09T16:17:51;99967.63;;;21.49;52.81
65151;BME280;51918;51.856;0.150;2023-05-09T16:22:53;99985.44;;;21.03;53.27
65151;BME280;51918;51.856;0.150;2023-05-09T16:27:54;99995.22;;;20.35;53.90
65151;BME280;51918;51.856;0.150;2023-05-09T16:32:54;99985.69;;;19.20;55.75
65151;BME280;51918;51.856;0.150;2023-05-09T16:37:56;99974.75;;;19.06;56.58
65151;BME280;51918;51.856;0.150;2023-05-09T16:42:57;99980.94;;;18.77;58.04
65151;BME280;51918;51.856;0.150;2023-05-09T16:47:58;99987.25;;;18.45;58.47
65151;BME280;51918;51.856;0.150;2023-05-09T16:53:00;100003.28;;;17.35;58.63
65151;BME280;51918;51.856;0.150;2023-05-09T16:58:25;100082.03;;;16.73;61.65
65151;BME280;51918;51.856;0.150;2023-05-09T17:03:25;100071.28;;;16.13;60.70
65151;BME280;51918;51.856;0.150;2023-05-09T17:08:28;100069.84;;;15.78;62.34
65151;BME280;51918;51.856;0.150;2023-05-09T17:13:28;100069.91;;;15.65;63.14
65151;BME280;51918;51.856;0.150;2023-05-09T17:18:29;100050.81;;;15.59;64.30
65151;BME280;51918;51.856;0.150;2023-05-09T17:23:31;100046.47;;;15.47;65.29
65151;BME280;51918;51.856;0.150;2023-05-09T17:28:32;100058.25;;;15.36;66.06
65151;BME280;51918;51.856;0.150;2023-05-09T17:33:33;100055.25;;;15.39;67.33
65151;BME280;51918;51.856;0.150;2023-05-09T17:38:38;100044.50;;;15.35;68.31
65151;BME280;51918;51.856;0.150;2023-05-09T17:43:39;100033.16;;;15.30;69.33
65151;BME280;51918;51.856;0.150;2023-05-09T17:48:39;100034.38;;;15.27;70.14
65151;BME280;51918;51.856;0.150;2023-05-09T17:53:41;100031.19;;;15.25;71.03
65151;BME280;51918;51.856;0.150;2023-05-09T17:58:42;100017.63;;;15.23;71.63
65151;BME280;51918;51.856;0.150;2023-05-09T18:03:43;100006.09;;;15.19;72.23
65151;BME280;51918;51.856;0.150;2023-05-09T18:08:45;100007.09;;;15.11;72.88
65151;BME280;51918;51.856;0.150;2023-05-09T18:13:46;100001.19;;;14.91;73.20
65151;BME280;51918;51.856;0.150;2023-05-09T18:18:46;99994.81;;;14.87;74.67
65151;BME280;51918;51.856;0.150;2023-05-09T18:23:48;99999.19;;;14.86;75.28
65151;BME280;51918;51.856;0.150;2023-05-09T18:28:49;99995.44;;;14.82;75.20
65151;BME280;51918;51.856;0.150;2023-05-09T18:33:50;99992.41;;;14.78;76.05
65151;BME280;51918;51.856;0.150;2023-05-09T18:38:53;99996.56;;;14.79;76.45
65151;BME280;51918;51.856;0.150;2023-05-09T18:43:55;99999.00;;;14.81;76.28
65151;BME280;51918;51.856;0.150;2023-05-09T18:48:56;100012.53;;;14.83;76.53
65151;BME280;51918;51.856;0.150;2023-05-09T18:53:58;100011.75;;;14.83;77.11
65151;BME280;51918;51.856;0.150;2023-05-09T18:58:59;100011.16;;;14.81;77.96
65151;BME280;51918;51.856;0.150;2023-05-09T19:04:00;100018.13;;;14.80;78.30
65151;BME280;51918;51.856;0.150;2023-05-09T19:09:02;100024.47;;;14.77;79.07
65151;BME280;51918;51.856;0.150;2023-05-09T19:14:02;100021.09;;;14.70;78.60
65151;BME280;51918;51.856;0.150;2023-05-09T19:19:03;100026.09;;;14.65;78.46
65151;BME280;51918;51.856;0.150;2023-05-09T19:24:06;100040.44;;;14.61;79.16
65151;BME280;51918;51.856;0.150;2023-05-09T19:29:07;100061.13;;;14.48;78.97
65151;BME280;51918;51.856;0.150;2023-05-09T19:34:08;100070.66;;;14.27;79.91
65151;BME280;51918;51.856;0.150;2023-05-09T19:39:10;100083.94;;;14.04;81.37
65151;BME280;51918;51.856;0.150;2023-05-09T19:44:11;100083.91;;;13.91;81.54
65151;BME280;51918;51.856;0.150;2023-05-09T19:49:12;100083.84;;;13.77;81.96
65151;BME280;51918;51.856;0.150;2023-05-09T19:54:14;100088.13;;;13.64;82.44
65151;BME280;51918;51.856;0.150;2023-05-09T19:59:15;100093.88;;;13.59;81.60
65151;BME280;51918;51.856;0.150;2023-05-09T20:04:16;100097.41;;;13.45;82.67
65151;BME280;51918;51.856;0.150;2023-05-09T20:09:18;100100.94;;;13.37;83.48
65151;BME280;51918;51.856;0.150;2023-05-09T20:14:18;100098.72;;;13.34;83.33
65151;BME280;51918;51.856;0.150;2023-05-09T20:19:19;100103.09;;;13.33;83.41
65151;BME280;51918;51.856;0.150;2023-05-09T20:24:21;100095.91;;;13.29;83.28
65151;BME280;51918;51.856;0.150;2023-05-09T20:29:23;100081.78;;;13.25;83.58
65151;BME280;51918;51.856;0.150;2023-05-09T20:34:24;100081.72;;;13.18;83.71
65151;BME280;51918;51.856;0.150;2023-05-09T20:39:26;100077.13;;;13.13;83.50
65151;BME280;51918;51.856;0.150;2023-05-09T20:44:26;100077.72;;;13.09;84.47
65151;BME280;51918;51.856;0.150;2023-05-09T20:49:27;100077.88;;;13.07;84.49
65151;BME280;51918;51.856;0.150;2023-05-09T20:54:29;100078.47;;;13.03;84.49
65151;BME280;51918;51.856;0.150;2023-05-09T20:59:30;100066.88;;;12.92;85.00
65151;BME280;51918;51.856;0.150;2023-05-09T21:04:31;100058.91;;;12.87;85.34
65151;BME280;51918;51.856;0.150;2023-05-09T21:09:33;100059.66;;;12.81;86.28
65151;BME280;51918;51.856;0.150;2023-05-09T21:14:33;100064.75;;;12.74;86.92
65151;BME280;51918;51.856;0.150;2023-05-09T21:19:34;100073.69;;;12.71;86.38
65151;BME280;51918;51.856;0.150;2023-05-09T21:24:43;100077.34;;;12.62;86.71
65151;BME280;51918;51.856;0.150;2023-05-09T21:29:44;100064.22;;;12.57;87.25
65151;BME280;51918;51.856;0.150;2023-05-09T21:34:46;100060.56;;;12.51;87.39
65151;BME280;51918;51.856;0.150;2023-05-09T21:39:48;100050.56;;;12.42;88.25
65151;BME280;51918;51.856;0.150;2023-05-09T21:44:49;100060.63;;;12.37;88.93
65151;BME280;51918;51.856;0.150;2023-05-09T21:49:49;100059.22;;;12.34;89.53
65151;BME280;51918;51.856;0.150;2023-05-09T21:54:51;100055.22;;;12.31;89.49
65151;BME280;51918;51.856;0.150;2023-05-09T21:59:52;100051.25;;;12.29;89.54
65151;BME280;51918;51.856;0.150;2023-05-09T22:04:53;100054.38;;;12.24;90.31
65151;BME280;51918;51.856;0.150;2023-05-09T22:09:57;100051.53;;;12.19;90.65
65151;BME280;51918;51.856;0.150;2023-05-09T22:14:58;100056.06;;;12.17;91.17
65151;BME280;51918;51.856;0.150;2023-05-09T22:20:00;100070.94;;;12.15;91.43
65151;BME280;51918;51.856;0.150;2023-05-09T22:25:05;100069.97;;;12.16;91.86
65151;BME280;51918;51.856;0.150;2023-05-09T22:30:07;100068.19;;;12.17;91.98
65151;BME280;51918;51.856;0.150;2023-05-09T22:35:07;100072.22;;;12.04;91.67
65151;BME280;51918;51.856;0.150;2023-05-09T22:40:10;100068.91;;;12.10;92.28
65151;BME280;51918;51.856;0.150;2023-05-09T22:45:11;100064.38;;;12.12;92.07
65151;BME280;51918;51.856;0.150;2023-05-09T22:50:12;100071.31;;;12.12;92.40
65151;BME280;51918;51.856;0.150;2023-05-09T22:55:15;100074.84;;;12.11;93.01
65151;BME280;51918;51.856;0.150;2023-05-09T23:00:16;100066.72;;;12.07;92.56
65151;BME280;51918;51.856;0.150;2023-05-09T23:05:16;100071.69;;;12.09;93.21
65151;BME280;51918;51.856;0.150;2023-05-09T23:10:19;100072.81;;;12.06;92.22
65151;BME280;51918;51.856;0.150;2023-05-09T23:15:22;100075.97;;;12.02;92.40
65151;BME280;51918;51.856;0.150;2023-05-09T23:20:23;100077.28;;;11.98;93.02
65151;BME280;51918;51.856;0.150;2023-05-09T23:25:25;100073.47;;;11.93;93.32
65151;BME280;51918;51.856;0.150;2023-05-09T23:30:25;100074.31;;;11.94;93.95
65151;BME280;51918;51.856;0.150;2023-05-09T23:35:26;100072.25;;;11.89;93.76
65151;BME280;51918;51.856;0.150;2023-05-09T23:40:28;100076.19;;;11.85;94.05
65151;BME280;51918;51.856;0.150;2023-05-09T23:45:29;100080.53;;;11.85;94.07
65151;BME280;51918;51.856;0.150;2023-05-09T23:50:29;100074.94;;;11.81;93.81
65151;BME280;51918;51.856;0.150;2023-05-09T23:55:31;100068.81;;;11.82;94.16
